^^
Lisbon, NH - Weather Station Historical Data
Daily Summary for May 24, 2021 Units:  English    Metric   Both
Daily Weekly Monthly Yearly
  High: Low: Average:
Temperature: 67.8 °F 35.5 °F 53.4 °F
Dew Point: 46.5 °F 33.1 °F 39 °F
Humidity: 100% 29.2% 65%
Wind Speed: 4.2mph 0mph 1mph
Wind Gust: 12mph - -
Wind- - South
Pressure: 30.27 in 30.08 in -
Precipitation: 0.00 in    
 
 
Tabular Data for May 24, 2021
Time Temperature Dew Point Pressure Wind Wind Speed Wind Gust Humidity Rainfall Rate (Hourly) solar
00:04 43.8 °F 40.7 °F 30.14 in Calm     88.8% 0.00 in 0 W/m2
00:09 43.5 °F 40.5 °F 30.14 in Calm     89% 0.00 in 0 W/m2
00:14 43.2 °F 40.2 °F 30.15 in Calm     89% 0.00 in 0 W/m2
00:19 43 °F 40.2 °F 30.15 in Calm     89.8% 0.00 in 0 W/m2
00:24 42.8 °F 40 °F 30.15 in Calm     90% 0.00 in 0 W/m2
00:29 42.7 °F 40.2 °F 30.15 in Calm     90.8% 0.00 in 0 W/m2
00:34 42.6 °F 40.2 °F 30.15 in Calm     91% 0.00 in 0 W/m2
00:39 42.4 °F 39.9 °F 30.15 in Calm     91% 0.00 in 0 W/m2
00:44 42.3 °F 39.9 °F 30.15 in Calm     91.1% 0.00 in 0 W/m2
00:49 42.1 °F 39.9 °F 30.15 in Calm     92% 0.00 in 0 W/m2
00:54 42 °F 39.8 °F 30.15 in Calm   1 mph 92% 0.00 in 0 W/m2
00:59 41.8 °F 39.7 °F 30.16 in North 0.2 mph 1 mph 92.3% 0.00 in 0 W/m2
01:04 41.6 °F 39.7 °F 30.16 in Calm     93% 0.00 in 0 W/m2
01:09 41.5 °F 39.6 °F 30.16 in Calm     93.1% 0.00 in 0 W/m2
01:10 41.4 °F 39.8 °F 30.16 in Calm     94% 0.00 in 0 W/m2
01:19 41.3 °F 39.7 °F 30.16 in Calm     94% 0.00 in 0 W/m2
01:24 41.3 °F 39.7 °F 30.16 in Calm     94% 0.00 in 0 W/m2
01:29 41.1 °F 39.6 °F 30.16 in NNE 0.2 mph 2 mph 94.3% 0.00 in 0 W/m2
01:34 41.1 °F 39.8 °F 30.16 in NE 0.1 mph 2 mph 95% 0.00 in 0 W/m2
01:39 41 °F 39.7 °F 30.16 in Calm   1 mph 95% 0.00 in 0 W/m2
01:44 40.8 °F 39.5 °F 30.16 in Calm     95% 0.00 in 0 W/m2
01:49 40.7 °F 39.4 °F 30.16 in NE 0.2 mph 1 mph 95% 0.00 in 0 W/m2
01:54 40.6 °F 39.5 °F 30.16 in Calm   1 mph 95.6% 0.00 in 0 W/m2
01:59 40.4 °F 39.3 °F 30.16 in NNE 0.1 mph 1 mph 96% 0.00 in 0 W/m2
02:04 40.3 °F 39.3 °F 30.16 in Calm   1 mph 96% 0.00 in 0 W/m2
02:09 40.2 °F 39.1 °F 30.16 in Calm   1 mph 96% 0.00 in 0 W/m2
02:14 40 °F 39 °F 30.17 in NNE 0.1 mph 1 mph 96% 0.00 in 0 W/m2
02:19 39.9 °F 39 °F 30.17 in Calm   1 mph 96.6% 0.00 in 0 W/m2
02:24 39.7 °F 38.9 °F 30.17 in NNE 0.2 mph 1 mph 97% 0.00 in 0 W/m2
02:29 39.7 °F 38.9 °F 30.17 in Calm     97% 0.00 in 0 W/m2
02:34 39.5 °F 38.7 °F 30.17 in Calm   1 mph 97% 0.00 in 0 W/m2
02:39 39.4 °F 38.6 °F 30.17 in Calm   1 mph 97% 0.00 in 0 W/m2
02:44 39.3 °F 38.5 °F 30.17 in Calm     97% 0.00 in 0 W/m2
02:49 39.1 °F 38.3 °F 30.17 in Calm     97% 0.00 in 0 W/m2
02:54 39 °F 38.3 °F 30.17 in Calm     97.3% 0.00 in 0 W/m2
02:59 38.9 °F 38.4 °F 30.18 in Calm     98% 0.00 in 0 W/m2
03:04 38.8 °F 38.3 °F 30.18 in Calm     98% 0.00 in 0 W/m2
03:09 38.7 °F 38.2 °F 30.18 in Calm     98% 0.00 in 0 W/m2
03:14 38.6 °F 38.1 °F 30.18 in Calm     98% 0.00 in 0 W/m2
03:19 38.4 °F 37.9 °F 30.18 in Calm     98% 0.00 in 0 W/m2
03:24 38.2 °F 37.7 °F 30.18 in Calm     98% 0.00 in 0 W/m2
03:29 38 °F 37.5 °F 30.19 in Calm     98% 0.00 in 0 W/m2
03:34 37.8 °F 37.3 °F 30.19 in Calm     98% 0.00 in 0 W/m2
03:39 37.8 °F 37.2 °F 30.19 in Calm     98% 0.00 in 0 W/m2
03:44 37.7 °F 37.2 °F 30.19 in Calm     98% 0.00 in 0 W/m2
03:49 37.6 °F 37.3 °F 30.19 in Calm   1 mph 98.8% 0.00 in 0 W/m2
03:54 37.5 °F 37 °F 30.19 in Calm   1 mph 98.2% 0.00 in 0 W/m2
03:59 37.3 °F 36.9 °F 30.19 in Calm     98.3% 0.00 in 0 W/m2
04:04 37.2 °F 37 °F 30.19 in Calm     99% 0.00 in 0 W/m2
04:09 37.1 °F 36.7 °F 30.19 in NNE 0.1 mph 1 mph 98.6% 0.00 in 0 W/m2
04:14 37 °F 36.8 °F 30.19 in NNE 0.1 mph 2 mph 99% 0.00 in 0 W/m2
04:19 36.8 °F 36.6 °F 30.19 in Calm     99% 0.00 in 0 W/m2
04:24 36.8 °F 36.6 °F 30.19 in NNE 0.2 mph 1 mph 99% 0.00 in 0 W/m2
04:29 36.7 °F 36.5 °F 30.20 in Calm   1 mph 99% 0.00 in 0 W/m2
04:34 36.6 °F 36.3 °F 30.20 in NNE 0.3 mph 2 mph 99% 0.00 in 0 W/m2
04:39 36.4 °F 36.2 °F 30.20 in NNE 0.1 mph 1 mph 99% 0.00 in 0 W/m2
04:44 36.4 °F 36.1 °F 30.20 in Calm     99% 0.00 in 0 W/m2
04:49 36.3 °F 36 °F 30.20 in Calm     99% 0.00 in 0 W/m2
04:54 36.1 °F 35.8 °F 30.20 in Calm     99% 0.00 in 0 W/m2
04:59 36 °F 35.8 °F 30.21 in Calm     99% 0.00 in 0 W/m2
05:04 36 °F 35.7 °F 30.21 in Calm     99% 0.00 in 5 W/m2
05:09 35.8 °F 35.6 °F 30.21 in NNE 0.2 mph 1 mph 99% 0.00 in 5 W/m2
05:14 35.7 °F 35.5 °F 30.22 in Calm   1 mph 99.3% 0.00 in 7 W/m2
05:19 35.7 °F 35.7 °F 30.22 in Calm     100% 0.00 in 7 W/m2
05:24 35.7 °F 35.7 °F 30.22 in Calm     100% 0.00 in 9 W/m2
05:29 35.7 °F 35.7 °F 30.23 in Calm     100% 0.00 in 14 W/m2
05:34 35.5 °F 35.5 °F 30.23 in Calm     100% 0.00 in 18 W/m2
05:39 35.5 °F 35.5 °F 30.23 in Calm     100% 0.00 in 23 W/m2
05:44 35.7 °F 35.7 °F 30.24 in Calm   1 mph 100% 0.00 in 26 W/m2
05:49 35.8 °F 35.8 °F 30.24 in Calm     100% 0.00 in 28 W/m2
05:54 35.8 °F 35.8 °F 30.24 in NNE 0.3 mph 1 mph 100% 0.00 in 30 W/m2
05:59 36.1 °F 36.1 °F 30.25 in NE 1.1 mph 2 mph 100% 0.00 in 37 W/m2
06:04 36.3 °F 36.3 °F 30.25 in NE 1.3 mph 2 mph 100% 0.00 in 60 W/m2
06:09 36.3 °F 36.3 °F 30.25 in ENE 1 mph 2 mph 100% 0.00 in 62 W/m2
06:14 36.3 °F 36.3 °F 30.25 in ENE 0.6 mph 2 mph 100% 0.00 in 83 W/m2
06:19 36.4 °F 36.4 °F 30.25 in ENE 1.5 mph 3 mph 100% 0.00 in 83 W/m2
06:24 36.4 °F 36.4 °F 30.25 in ENE 1 mph 3 mph 100% 0.00 in 128 W/m2
06:29 36.6 °F 36.6 °F 30.25 in ENE 1.2 mph 3 mph 100% 0.00 in 150 W/m2
06:34 37.1 °F 37.1 °F 30.25 in ENE 0.5 mph 3 mph 100% 0.00 in 143 W/m2
06:39 37.5 °F 37.5 °F 30.25 in ENE 1.7 mph 5 mph 100% 0.00 in 209 W/m2
06:44 37.8 °F 37.8 °F 30.26 in ENE 2.1 mph 5 mph 100% 0.00 in 266 W/m2
06:49 38.2 °F 38.2 °F 30.26 in ENE 2.9 mph 5 mph 100% 0.00 in 282 W/m2
06:54 38.5 °F 38.5 °F 30.26 in ENE 2.2 mph 5 mph 100% 0.00 in 294 W/m2
06:59 38.9 °F 38.9 °F 30.26 in ENE 2.1 mph 3 mph 100% 0.00 in 310 W/m2
07:04 39.5 °F 39.5 °F 30.26 in ENE 2.1 mph 3 mph 100% 0.00 in 326 W/m2
07:09 39.8 °F 39.6 °F 30.26 in ENE 1.6 mph 3 mph 99.2% 0.00 in 338 W/m2
07:14 40.3 °F 40.1 °F 30.26 in ENE 2.6 mph 5 mph 99% 0.00 in 348 W/m2
07:19 40.7 °F 40.3 °F 30.26 in ENE 1.8 mph 3 mph 98.7% 0.00 in 366 W/m2
07:24 41.4 °F 40.3 °F 30.26 in ENE 1.2 mph 2 mph 96% 0.00 in 384 W/m2
07:29 41.8 °F 40.5 °F 30.26 in ENE 1.9 mph 3 mph 95.1% 0.00 in 401 W/m2
07:34 42.6 °F 40.8 °F 30.26 in ENE 1.4 mph 3 mph 93.5% 0.00 in 419 W/m2
07:39 43.5 °F 41.2 °F 30.26 in ENE 0.8 mph 3 mph 91.7% 0.00 in 435 W/m2
07:44 44.6 °F 41.6 °F 30.26 in NE 1.7 mph 3 mph 89.2% 0.00 in 452 W/m2
07:49 45.7 °F 41.5 °F 30.26 in ENE 0.9 mph 2 mph 85.2% 0.00 in 470 W/m2
07:54 46 °F 41.1 °F 30.26 in East 1.1 mph 3 mph 82.7% 0.00 in 484 W/m2
07:59 46.3 °F 41.1 °F 30.27 in East 0.9 mph 2 mph 82% 0.00 in 496 W/m2
08:04 46.8 °F 41.1 °F 30.27 in East 0.4 mph 2 mph 80.7% 0.00 in 517 W/m2
08:09 47.4 °F 41.2 °F 30.27 in East 0.4 mph 3 mph 79% 0.00 in 535 W/m2
08:14 48.3 °F 41.6 °F 30.27 in East 1 mph 3 mph 77.6% 0.00 in 551 W/m2
08:19 48.7 °F 41.2 °F 30.27 in East 0.8 mph 3 mph 75.2% 0.00 in 567 W/m2
08:24 49.3 °F 41.3 °F 30.27 in ESE 0.4 mph 2 mph 73.7% 0.00 in 581 W/m2
08:29 49.8 °F 41.3 °F 30.27 in SSE 1 mph 2 mph 72.4% 0.00 in 596 W/m2
08:34 50.3 °F 41.4 °F 30.27 in ESE 0.9 mph 2 mph 71.3% 0.00 in 614 W/m2
08:39 51.1 °F 41.9 °F 30.27 in East 1.2 mph 2 mph 70.5% 0.00 in 628 W/m2
08:44 51.9 °F 42 °F 30.27 in ENE 1.3 mph 2 mph 68.8% 0.00 in 644 W/m2
08:49 52.7 °F 41 °F 30.27 in East 0.7 mph 3 mph 64.3% 0.00 in 658 W/m2
08:54 53.1 °F 40.8 °F 30.27 in East 0.7 mph 3 mph 62.8% 0.00 in 672 W/m2
08:59 53.7 °F 41.3 °F 30.27 in SE 1.2 mph 2 mph 62.9% 0.00 in 686 W/m2
09:04 54.2 °F 41.1 °F 30.27 in SE 1.2 mph 2 mph 61% 0.00 in 700 W/m2
09:09 54.4 °F 41.1 °F 30.27 in ESE 0.9 mph 3 mph 60.7% 0.00 in 714 W/m2
09:14 54.8 °F 41.3 °F 30.27 in South 1.6 mph 3 mph 60.2% 0.00 in 728 W/m2
09:19 55.3 °F 40.3 °F 30.26 in SSW 1.8 mph 6 mph 57% 0.00 in 743 W/m2
09:24 55.9 °F 39.8 °F 30.26 in SSW 0.9 mph 6 mph 54.6% 0.00 in 757 W/m2
09:29 56.7 °F 39.6 °F 30.26 in South 1.6 mph 5 mph 52.7% 0.00 in 767 W/m2
09:34 57 °F 39.5 °F 30.26 in SW 2.4 mph 6 mph 51.7% 0.00 in 781 W/m2
09:39 57.3 °F 39 °F 30.26 in SSW 2.1 mph 6 mph 50.2% 0.00 in 795 W/m2
09:44 57.4 °F 38.3 °F 30.26 in SSW 2.3 mph 5 mph 48.8% 0.00 in 804 W/m2
09:49 57.7 °F 37.1 °F 30.26 in SSW 2.5 mph 6 mph 45.9% 0.00 in 816 W/m2
09:54 58.4 °F 37 °F 30.26 in SSW 2.1 mph 6 mph 44.7% 0.00 in 830 W/m2
09:59 58.9 °F 36 °F 30.26 in SSW 1.3 mph 5 mph 42.2% 0.00 in 846 W/m2
10:04 59.3 °F 36 °F 30.25 in South 1.7 mph 3 mph 41.5% 0.00 in 853 W/m2
10:09 59.7 °F 34.1 °F 30.25 in SSW 2.8 mph 6 mph 38.1% 0.00 in 866 W/m2
10:14 59.9 °F 33.2 °F 30.25 in South 2 mph 6 mph 36.4% 0.00 in 871 W/m2
10:19 59.8 °F 33.7 °F 30.25 in South 3 mph 6 mph 37.4% 0.00 in 882 W/m2
10:24 59.7 °F 34.7 °F 30.25 in ESE 1.9 mph 6 mph 38.9% 0.00 in 890 W/m2
10:29 60.3 °F 35.1 °F 30.25 in SSW 1.6 mph 6 mph 38.8% 0.00 in 903 W/m2
10:34 60.7 °F 33.1 °F 30.24 in West 1.5 mph 5 mph 35.3% 0.00 in 913 W/m2
10:39 61.2 °F 33.9 °F 30.24 in South 1.7 mph 5 mph 35.8% 0.00 in 922 W/m2
10:44 61.3 °F 34.5 °F 30.24 in SSW 3.4 mph 8 mph 36.5% 0.00 in 931 W/m2
10:49 61.1 °F 33.8 °F 30.24 in South 3.3 mph 7 mph 35.7% 0.00 in 936 W/m2
10:54 60.9 °F 34.8 °F 30.24 in SSW 3.7 mph 8 mph 37.6% 0.00 in 945 W/m2
10:59 61.1 °F 35.8 °F 30.24 in SE 3 mph 7 mph 38.7% 0.00 in 954 W/m2
11:04 61.2 °F 34.9 °F 30.24 in SW 2.4 mph 8 mph 37.4% 0.00 in 957 W/m2
11:09 61.8 °F 35.1 °F 30.24 in SW 3.1 mph 11 mph 36.8% 0.00 in 964 W/m2
11:14 62.2 °F 35.1 °F 30.24 in SW 1.9 mph 11 mph 36.3% 0.00 in 977 W/m2
11:19 63.1 °F 37 °F 30.24 in SW 2.9 mph 8 mph 37.9% 0.00 in 980 W/m2
11:24 63.7 °F 35.9 °F 30.24 in WSW 2.4 mph 8 mph 35.5% 0.00 in 987 W/m2
11:29 63.9 °F 35.6 °F 30.24 in SW 3.2 mph 12 mph 34.8% 0.00 in 992 W/m2
11:34 63.9 °F 34.5 °F 30.24 in South 1.8 mph 5 mph 33.3% 0.00 in 996 W/m2
11:39 63.5 °F 34.9 °F 30.24 in SW 3.3 mph 11 mph 34.3% 0.00 in 999 W/m2
11:44 63 °F 33.9 °F 30.24 in SSW 4 mph 12 mph 33.5% 0.00 in 1005 W/m2
11:49 62.9 °F 34.8 °F 30.23 in South 2.5 mph 8 mph 35% 0.00 in 1003 W/m2
11:54 63.4 °F 36 °F 30.23 in SW 2.4 mph 12 mph 36.1% 0.00 in 1010 W/m2
11:59 64 °F 35.6 °F 30.23 in SW 1.5 mph 7 mph 34.7% 0.00 in 1015 W/m2
12:04 64.1 °F 35 °F 30.23 in SSW 1.7 mph 7 mph 33.8% 0.00 in 1017 W/m2
12:09 63.9 °F 35.1 °F 30.23 in West 1.7 mph 8 mph 34.1% 0.00 in 1019 W/m2
12:14 64.1 °F 35.8 °F 30.23 in SW 2.5 mph 11 mph 34.9% 0.00 in 1017 W/m2
12:19 64.5 °F 35.3 °F 30.22 in West 1 mph 5 mph 33.7% 0.00 in 1024 W/m2
12:24 64.9 °F 35.8 °F 30.22 in SE 1.1 mph 4 mph 34% 0.00 in 1022 W/m2
12:29 64.8 °F 36.8 °F 30.22 in West 1.7 mph 10 mph 35.4% 0.00 in 1021 W/m2
12:34 64.7 °F 35.1 °F 30.21 in South 2.8 mph 10 mph 33.2% 0.00 in 1015 W/m2
12:39 64.9 °F 36.6 °F 30.21 in SW 2.7 mph 8 mph 35% 0.00 in 1017 W/m2
12:44 65.5 °F 36.4 °F 30.21 in SW 1.7 mph 6 mph 34% 0.00 in 1021 W/m2
12:49 65.1 °F 35.1 °F 30.20 in SSW 3.4 mph 10 mph 32.7% 0.00 in 1024 W/m2
12:54 65 °F 35.9 °F 30.20 in SSW 2.2 mph 7 mph 33.9% 0.00 in 1017 W/m2
12:59 65.7 °F 36.9 °F 30.20 in SSW 2.4 mph 8 mph 34.4% 0.00 in 1010 W/m2
13:04 65.5 °F 35.3 °F 30.19 in SSW 2.1 mph 8 mph 32.5% 0.00 in 1006 W/m2
13:09 65.1 °F 35.2 °F 30.19 in South 2 mph 6 mph 32.9% 0.00 in 1003 W/m2
13:14 65.1 °F 36.2 °F 30.19 in SW 3.3 mph 11 mph 34.2% 0.00 in 1006 W/m2
13:19 65.6 °F 37 °F 30.18 in SSW 3.5 mph 10 mph 34.7% 0.00 in 999 W/m2
13:24 66.1 °F 36.2 °F 30.18 in SSW 3.4 mph 12 mph 33% 0.00 in 996 W/m2
13:29 65.9 °F 35 °F 30.18 in SE 1.6 mph 4 mph 31.7% 0.00 in 996 W/m2
13:34 65.7 °F 36.7 °F 30.17 in WSW 1.9 mph 6 mph 34.2% 0.00 in 989 W/m2
13:39 65.9 °F 36.7 °F 30.17 in SSW 1.8 mph 7 mph 34% 0.00 in 985 W/m2
13:44 66.2 °F 36.7 °F 30.17 in WNW 0.3 mph 5 mph 33.7% 0.00 in 980 W/m2
13:49 66.9 °F 36.8 °F 30.16 in WSW 2.2 mph 8 mph 33% 0.00 in 975 W/m2
13:54 67.3 °F 36.9 °F 30.16 in SSW 1.6 mph 8 mph 32.7% 0.00 in 968 W/m2
13:59 67.2 °F 34.4 °F 30.16 in SSW 1.6 mph 6 mph 29.6% 0.00 in 962 W/m2
14:04 67 °F 36.9 °F 30.16 in West 1.7 mph 8 mph 32.9% 0.00 in 954 W/m2
14:09 67 °F 38.3 °F 30.16 in WSW 1.4 mph 6 mph 34.8% 0.00 in 947 W/m2
14:14 67 °F 36.7 °F 30.16 in WNW 1.2 mph 6 mph 32.6% 0.00 in 938 W/m2
14:19 66.9 °F 35.5 °F 30.15 in West 2.1 mph 6 mph 31.2% 0.00 in 480 W/m2
14:24 66.8 °F 33.7 °F 30.15 in SSW 2.8 mph 7 mph 29.2% 0.00 in 480 W/m2
14:29 66.7 °F 34.7 °F 30.15 in SSW 2.5 mph 7 mph 30.5% 0.00 in 480 W/m2
14:34 66.9 °F 35.8 °F 30.15 in SW 2.3 mph 12 mph 31.6% 0.00 in 897 W/m2
14:39 67 °F 34.1 °F 30.15 in SW 2.7 mph 12 mph 29.4% 0.00 in 897 W/m2
14:44 66.8 °F 35.5 °F 30.15 in SSW 1.7 mph 5 mph 31.3% 0.00 in 354 W/m2
14:49 66.8 °F 35.2 °F 30.14 in SW 0.8 mph 5 mph 31% 0.00 in 113 W/m2
14:54 66.9 °F 35.7 °F 30.14 in North 0.9 mph 3 mph 31.6% 0.00 in 547 W/m2
14:59 66.9 °F 35.4 °F 30.14 in NNW 0.9 mph 3 mph 31.1% 0.00 in 547 W/m2
15:04 67 °F 35.4 °F 30.13 in SSW 2.5 mph 10 mph 31.1% 0.00 in 450 W/m2
15:09 67 °F 35.5 °F 30.13 in SW 0.9 mph 10 mph 31.1% 0.00 in 303 W/m2
15:14 67.2 °F 35.5 °F 30.14 in ESE 1 mph 6 mph 31% 0.00 in 303 W/m2
15:19 67.2 °F 35.1 °F 30.14 in North 1 mph 6 mph 30.4% 0.00 in 188 W/m2
15:24 67.1 °F 35.4 °F 30.14 in SSW 2.6 mph 10 mph 30.9% 0.00 in 123 W/m2
15:29 67.1 °F 36.9 °F 30.14 in WNW 1.4 mph 10 mph 32.8% 0.00 in 241 W/m2
15:34 67.3 °F 35.8 °F 30.13 in WNW 0.9 mph 6 mph 31.2% 0.00 in 213 W/m2
15:39 67.4 °F 36.8 °F 30.13 in South 1.2 mph 7 mph 32.4% 0.00 in 109 W/m2
15:44 67.3 °F 35.1 °F 30.13 in South 2.7 mph 7 mph 30.4% 0.00 in 150 W/m2
15:49 67 °F 35.3 °F 30.12 in SSW 3 mph 7 mph 30.8% 0.00 in 93 W/m2
15:54 66.9 °F 34.9 °F 30.12 in WSW 2.7 mph 9 mph 30.5% 0.00 in 190 W/m2
15:59 67 °F 35.6 °F 30.12 in WNW 1.9 mph 9 mph 31.3% 0.00 in 190 W/m2
16:04 67.2 °F 36.6 °F 30.12 in WSW 2 mph 6 mph 32.3% 0.00 in 141 W/m2
16:09 67.5 °F 39 °F 30.12 in West 0.8 mph 7 mph 35.1% 0.00 in 141 W/m2
16:14 67.7 °F 36.7 °F 30.12 in South 1.3 mph 4 mph 31.8% 0.00 in 104 W/m2
16:19 67.6 °F 36.7 °F 30.12 in SW 2.7 mph 8 mph 32% 0.00 in 123 W/m2
16:24 67.6 °F 36.7 °F 30.12 in SW 2 mph 8 mph 32% 0.00 in 185 W/m2
16:29 67.8 °F 37.1 °F 30.12 in SW 3.2 mph 8 mph 32.3% 0.00 in 160 W/m2
16:34 67.6 °F 36.9 °F 30.12 in SW 2.6 mph 8 mph 32.2% 0.00 in 162 W/m2
16:39 67.6 °F 37.1 °F 30.12 in SW 2.4 mph 8 mph 32.5% 0.00 in 157 W/m2
16:44 67.6 °F 38 °F 30.12 in SW 2.9 mph 11 mph 33.7% 0.00 in 157 W/m2
16:49 67.6 °F 37.5 °F 30.11 in SW 2.9 mph 8 mph 33% 0.00 in 100 W/m2
16:54 67.4 °F 37.5 °F 30.11 in WSW 1.4 mph 7 mph 33.2% 0.00 in 95 W/m2
16:59 67.3 °F 38.5 °F 30.11 in SSW 0.4 mph 3 mph 34.6% 0.00 in 123 W/m2
17:04 67.3 °F 39.3 °F 30.11 in WSW 0.9 mph 7 mph 35.7% 0.00 in 107 W/m2
17:09 67.3 °F 38.2 °F 30.11 in SW 3.5 mph 10 mph 34.2% 0.00 in 141 W/m2
17:14 67.3 °F 39.1 °F 30.11 in SW 1.9 mph 9 mph 35.5% 0.00 in 169 W/m2
17:19 67.3 °F 38.7 °F 30.11 in SW 3.1 mph 7 mph 34.9% 0.00 in 165 W/m2
17:24 67.3 °F 39.5 °F 30.11 in SSW 1.5 mph 6 mph 36% 0.00 in 90 W/m2
17:29 67.3 °F 38 °F 30.11 in SW 1.2 mph 4 mph 34% 0.00 in 109 W/m2
17:34 67.3 °F 39.6 °F 30.10 in SW 1.8 mph 6 mph 36.2% 0.00 in 118 W/m2
17:39 67.3 °F 39.6 °F 30.10 in WSW 1.4 mph 5 mph 36.3% 0.00 in 109 W/m2
17:44 67.1 °F 39.3 °F 30.10 in SSW 0.1 mph 5 mph 36.1% 0.00 in 91 W/m2
17:49 67.1 °F 40.9 °F 30.10 in Calm   1 mph 38.3% 0.00 in 125 W/m2
17:54 67.1 °F 40.1 °F 30.10 in Calm   1 mph 37.1% 0.00 in 123 W/m2
17:59 67.3 °F 40.5 °F 30.10 in Calm     37.5% 0.00 in 134 W/m2
18:04 67.5 °F 41 °F 30.09 in SSE 0.4 mph 3 mph 38% 0.00 in 114 W/m2
18:09 67.7 °F 41.1 °F 30.09 in South 1.5 mph 6 mph 37.9% 0.00 in 93 W/m2
18:14 67.8 °F 39.6 °F 30.09 in SW 4.2 mph 11 mph 35.5% 0.00 in 58 W/m2
18:19 67.7 °F 39.4 °F 30.09 in SW 2.3 mph 8 mph 35.5% 0.00 in 55 W/m2
18:24 67.6 °F 39.8 °F 30.09 in WSW 1.7 mph 6 mph 36.1% 0.00 in 56 W/m2
18:29 67.4 °F 39 °F 30.09 in WSW 1 mph 5 mph 35.2% 0.00 in 58 W/m2
18:34 67.4 °F 40.5 °F 30.09 in SW 0.8 mph 4 mph 37.4% 0.00 in 79 W/m2
18:39 67.2 °F 40.4 °F 30.09 in WSW 1.1 mph 6 mph 37.5% 0.00 in 56 W/m2
18:44 67.1 °F 40.7 °F 30.09 in Calm   5 mph 38.1% 0.00 in 55 W/m2
18:49 66.9 °F 41.4 °F 30.09 in SSW 0.3 mph 2 mph 39.3% 0.00 in 51 W/m2
18:54 66.9 °F 41.6 °F 30.09 in SW 1.3 mph 4 mph 39.7% 0.00 in 51 W/m2
18:59 66.8 °F 41.6 °F 30.09 in WSW 0.7 mph 4 mph 39.8% 0.00 in 55 W/m2
19:04 66.7 °F 43.2 °F 30.09 in SW 0.1 mph 1 mph 42.6% 0.00 in 49 W/m2
19:09 66.4 °F 43.2 °F 30.09 in Calm   1 mph 42.8% 0.00 in 39 W/m2
19:14 66.2 °F 42.8 °F 30.09 in Calm   2 mph 42.6% 0.00 in 35 W/m2
19:19 65.8 °F 43.4 °F 30.09 in West 0.1 mph 1 mph 44.1% 0.00 in 32 W/m2
19:24 65.3 °F 43.9 °F 30.09 in WNW 0.1 mph 2 mph 45.8% 0.00 in 26 W/m2
19:29 64.6 °F 43.9 °F 30.09 in Calm     46.8% 0.00 in 21 W/m2
19:34 64.1 °F 44 °F 30.08 in WNW 0.1 mph 1 mph 48% 0.00 in 16 W/m2
19:39 63.5 °F 44.5 °F 30.08 in Calm     49.8% 0.00 in 16 W/m2
19:44 63 °F 44.7 °F 30.09 in Calm     51.2% 0.00 in 14 W/m2
19:49 62.4 °F 44.8 °F 30.09 in Calm     52.5% 0.00 in 14 W/m2
19:54 61.8 °F 45.7 °F 30.09 in Calm     55.5% 0.00 in 12 W/m2
19:59 61.3 °F 46 °F 30.09 in Calm     57.1% 0.00 in 11 W/m2
20:04 60.8 °F 46.5 °F 30.09 in Calm     59.3% 0.00 in 11 W/m2
20:09 60.1 °F 46.2 °F 30.09 in Calm     60% 0.00 in 9 W/m2
20:14 59.6 °F 46 °F 30.09 in Calm     60.8% 0.00 in 7 W/m2
20:19 58.9 °F 46.1 °F 30.09 in Calm     62.5% 0.00 in 5 W/m2
20:24 58.3 °F 46.2 °F 30.09 in Calm     64% 0.00 in 5 W/m2
20:29 57.7 °F 46.1 °F 30.10 in Calm     65.2% 0.00 in 0 W/m2
20:34 57.1 °F 46 °F 30.10 in Calm     66.2% 0.00 in 0 W/m2
20:39 56.6 °F 45.9 °F 30.10 in Calm     67.3% 0.00 in 0 W/m2
20:44 56.1 °F 45.7 °F 30.11 in Calm     68% 0.00 in 0 W/m2
20:49 55.6 °F 45.6 °F 30.11 in Calm     69% 0.00 in 0 W/m2
20:54 55.2 °F 45.4 °F 30.11 in Calm     69.6% 0.00 in 0 W/m2
20:59 54.8 °F 45.5 °F 30.11 in Calm     70.7% 0.00 in 0 W/m2
21:04 54.4 °F 45.2 °F 30.11 in Calm     71% 0.00 in 0 W/m2
21:09 54 °F 45.2 °F 30.11 in Calm     71.8% 0.00 in 0 W/m2
21:14 53.6 °F 45 °F 30.11 in Calm     72.5% 0.00 in 0 W/m2
21:19 53.2 °F 44.9 °F 30.11 in Calm     73.2% 0.00 in 0 W/m2
21:24 52.9 °F 44.8 °F 30.11 in Calm     74% 0.00 in 0 W/m2
21:29 52.5 °F 44.8 °F 30.11 in Calm     75% 0.00 in 0 W/m2
21:34 52.1 °F 44.4 °F 30.11 in Calm     75% 0.00 in 0 W/m2
21:39 51.8 °F 44.3 °F 30.11 in Calm     75.6% 0.00 in 0 W/m2
21:44 51.5 °F 44.2 °F 30.11 in Calm     76% 0.00 in 0 W/m2
21:49 51.2 °F 43.9 °F 30.11 in Calm     76% 0.00 in 0 W/m2
21:54 50.9 °F 43.9 °F 30.11 in Calm     76.8% 0.00 in 0 W/m2
21:59 50.6 °F 43.7 °F 30.11 in Calm     77% 0.00 in 0 W/m2
22:04 50.4 °F 43.4 °F 30.11 in Calm     77% 0.00 in 0 W/m2
22:09 50.1 °F 43.4 °F 30.11 in Calm     77.6% 0.00 in 0 W/m2
22:14 49.9 °F 43.3 °F 30.11 in Calm     78% 0.00 in 0 W/m2
22:19 49.7 °F 43.2 °F 30.11 in Calm     78.2% 0.00 in 0 W/m2
22:24 49.4 °F 43.2 °F 30.11 in Calm     79% 0.00 in 0 W/m2
22:29 49.2 °F 43 °F 30.11 in Calm     79.1% 0.00 in 0 W/m2
22:34 48.9 °F 43.1 °F 30.11 in Calm     80% 0.00 in 0 W/m2
22:39 48.7 °F 42.8 °F 30.11 in Calm     80% 0.00 in 0 W/m2
22:44 48.4 °F 42.8 °F 30.11 in Calm     80.9% 0.00 in 0 W/m2
22:49 48.2 °F 42.7 °F 30.11 in Calm     81% 0.00 in 0 W/m2
22:54 48.1 °F 42.7 °F 30.11 in Calm     81.5% 0.00 in 0 W/m2
22:59 48 °F 42.7 °F 30.11 in Calm     82% 0.00 in 0 W/m2
23:04 47.7 °F 42.6 °F 30.11 in Calm     82.2% 0.00 in 0 W/m2
23:09 47.5 °F 42.6 °F 30.11 in Calm     83% 0.00 in 0 W/m2
23:14 47.3 °F 42.6 °F 30.11 in Calm     83.5% 0.00 in 0 W/m2
23:19 47.1 °F 42.5 °F 30.11 in Calm     84% 0.00 in 0 W/m2
23:24 47 °F 42.6 °F 30.11 in Calm     84.5% 0.00 in 0 W/m2
23:29 46.9 °F 42.7 °F 30.11 in Calm     85% 0.00 in 0 W/m2
23:34 46.7 °F 42.5 °F 30.11 in Calm     85% 0.00 in 0 W/m2
23:39 46.5 °F 42.2 °F 30.11 in Calm     85% 0.00 in 0 W/m2
23:44 46.2 °F 42.2 °F 30.11 in Calm     85.8% 0.00 in 0 W/m2
23:49 46 °F 42.1 °F 30.11 in Calm     86% 0.00 in 0 W/m2
23:54 45.8 °F 41.9 °F 30.11 in Calm     86% 0.00 in 0 W/m2
23:59 45.6 °F 41.9 °F 30.11 in Calm     86.6% 0.00 in 0 W/m2
Lisbon, New Hampshire, USA
Compliments of Weather Underground - 4 mb